Time;durP1;ratioP1;P1;durP2;ratioP2;P2;SDS_P1;SDS_P2;PMS_P1;PMS_P2;Temp;Humidity;BMP_temperature;BMP_pressure;BME280_temperature;BME280_humidity;BME280_pressure;Samples;Min_cycle;Max_cycle;Signal;HPM_P1;HPM_P2
2022/06/16 04:02:31;;;;;;;5.47;5.00;;;14.50;99.90;;;;;;5035306;23;21026;-70
2022/06/16 04:04:57;;;;;;;4.80;4.50;;;14.60;99.90;;;;;;4972953;28;20721;-70
2022/06/16 04:07:24;;;;;;;5.10;4.80;;;14.60;99.90;;;;;;4972904;28;20495;-71
2022/06/16 04:09:50;;;;;;;5.33;4.83;;;14.70;99.90;;;;;;4972269;28;20527;-71
2022/06/16 04:12:17;;;;;;;5.60;4.90;;;14.60;99.90;;;;;;4972250;28;20591;-71
2022/06/16 04:14:44;;;;;;;4.83;4.53;;;14.60;99.90;;;;;;4995536;23;20594;-71
2022/06/16 04:17:10;;;;;;;7.50;7.10;;;14.70;99.90;;;;;;4972802;28;20515;-71
2022/06/16 04:20:11;;;;;;;5.40;5.00;;;14.70;99.90;;;;;;4972528;28;20468;-71
2022/06/16 04:22:26;;;;;;;4.93;4.63;;;14.70;99.90;;;;;;4972185;28;20994;-71
2022/06/16 04:24:53;;;;;;;4.57;4.27;;;14.80;99.90;;;;;;4971385;28;20488;-72
2022/06/16 04:27:20;;;;;;;5.40;4.90;;;14.80;99.90;;;;;;4971990;28;20952;-71
2022/06/16 04:29:46;;;;;;;5.73;5.27;;;14.80;99.90;;;;;;4972002;28;20455;-71
2022/06/16 04:32:13;;;;;;;4.90;4.60;;;14.80;99.90;;;;;;4973143;28;20495;-71
2022/06/16 04:34:42;;;;;;;5.07;4.73;;;14.70;99.90;;;;;;4972444;28;20491;-72
2022/06/16 04:37:10;;;;;;;5.27;4.80;;;14.70;99.90;;;;;;4972393;28;20949;-71
2022/06/16 04:39:36;;;;;;;4.93;4.53;;;14.60;99.90;;;;;;4964885;28;20538;-72
2022/06/16 04:42:04;;;;;;;5.03;4.60;;;14.70;99.90;;;;;;4972117;28;20455;-72
2022/06/16 04:44:34;;;;;;;3.87;3.77;;;14.70;99.90;;;;;;4972519;28;20484;-72
2022/06/16 04:47:01;;;;;;;7.67;4.47;;;14.80;99.90;;;;;;4972426;28;20499;-72
2022/06/16 04:49:28;;;;;;;4.77;4.47;;;14.90;99.90;;;;;;4972540;28;20470;-71
2022/06/16 04:51:56;;;;;;;5.67;5.00;;;14.90;99.90;;;;;;4980387;28;20539;-71
2022/06/16 04:54:23;;;;;;;5.00;4.50;;;14.90;99.90;;;;;;4972448;28;20566;-72
2022/06/16 04:56:50;;;;;;;5.27;4.70;;;15.00;99.90;;;;;;4990646;28;20487;-72
2022/06/16 04:59:16;;;;;;;4.90;4.60;;;15.10;99.90;;;;;;4997019;28;20482;-72
2022/06/16 05:01:43;;;;;;;4.73;4.33;;;15.10;99.90;;;;;;4996379;28;20464;-72
2022/06/16 05:04:10;;;;;;;4.43;4.13;;;15.10;99.90;;;;;;4994840;28;20482;-72
2022/06/16 05:06:37;;;;;;;4.83;3.97;;;15.10;99.90;;;;;;4991168;28;20463;-71
2022/06/16 05:09:05;;;;;;;7.80;4.77;;;15.20;99.90;;;;;;4978487;28;20460;-72
2022/06/16 05:11:32;;;;;;;5.23;4.67;;;15.20;99.90;;;;;;4973632;28;20496;-72
2022/06/16 05:14:00;;;;;;;4.57;4.27;;;15.10;99.90;;;;;;4972055;28;20514;-72
2022/06/16 05:16:27;;;;;;;4.30;4.10;;;15.10;99.90;;;;;;4971555;28;20467;-72
2022/06/16 05:18:54;;;;;;;6.17;5.43;;;15.10;99.90;;;;;;4972048;28;20547;-72
2022/06/16 05:21:21;;;;;;;5.17;4.80;;;15.10;99.90;;;;;;4971603;28;20483;-72
2022/06/16 05:23:48;;;;;;;4.53;4.33;;;15.20;99.90;;;;;;4971464;28;20515;-71
2022/06/16 05:26:16;;;;;;;4.23;3.93;;;15.30;99.90;;;;;;4971415;28;20475;-70
2022/06/16 05:28:43;;;;;;;4.50;4.30;;;15.30;99.90;;;;;;4966586;28;20464;-71
2022/06/16 05:31:10;;;;;;;3.90;3.60;;;15.50;99.90;;;;;;4971493;28;20488;-71
2022/06/16 05:33:37;;;;;;;4.50;4.33;;;15.50;99.90;;;;;;4971730;28;20550;-71
2022/06/16 05:36:06;;;;;;;4.47;4.07;;;15.60;99.90;;;;;;4972407;28;20507;-71
2022/06/16 05:38:33;;;;;;;7.63;4.10;;;15.80;99.90;;;;;;4975855;28;20467;-71
2022/06/16 05:41:01;;;;;;;4.17;3.97;;;15.90;99.90;;;;;;4975373;28;20490;-71
2022/06/16 05:43:29;;;;;;;4.70;4.40;;;16.00;99.90;;;;;;4975821;28;20554;-71
2022/06/16 05:45:56;;;;;;;4.40;4.20;;;16.00;99.90;;;;;;4975150;28;20468;-71
2022/06/16 05:48:23;;;;;;;4.57;4.37;;;16.00;99.90;;;;;;4975341;28;20467;-70
2022/06/16 05:50:50;;;;;;;4.40;4.00;;;16.10;99.90;;;;;;4975291;28;20527;-70
2022/06/16 05:53:17;;;;;;;3.90;3.50;;;16.10;99.90;;;;;;4975431;28;20471;-70
2022/06/16 05:55:44;;;;;;;4.63;4.43;;;16.10;99.90;;;;;;4974530;28;21083;-71
2022/06/16 05:58:11;;;;;;;4.07;3.77;;;16.10;99.90;;;;;;4975507;28;20851;-70
2022/06/16 06:00:39;;;;;;;3.97;3.77;;;16.20;99.90;;;;;;4974647;28;20498;-70
2022/06/16 06:03:06;;;;;;;4.63;4.23;;;16.20;99.90;;;;;;4975447;28;20495;-70
2022/06/16 06:05:32;;;;;;;4.77;4.37;;;16.20;99.90;;;;;;4975226;28;20491;-70
2022/06/16 06:16:35;;;;;;;3.77;3.57;;;16.50;99.90;;;;;;4974763;28;20934;-70
2022/06/16 06:19:23;;;;;;;3.87;3.77;;;17.10;99.90;;;;;;4973019;28;20463;-70
2022/06/16 06:22:00;;;;;;;2.97;2.80;;;17.90;99.90;;;;;;4955339;28;20464;-70
2022/06/16 06:24:27;;;;;;;3.77;3.60;;;18.90;99.90;;;;;;4955345;28;21023;-70
2022/06/16 06:26:56;;;;;;;3.50;3.20;;;19.20;99.90;;;;;;4955152;29;20890;-70
2022/06/16 06:29:23;;;;;;;3.27;3.17;;;19.20;99.90;;;;;;4955630;29;20475;-70
2022/06/16 06:31:51;;;;;;;3.20;3.00;;;19.30;99.90;;;;;;4954746;29;20488;-70
2022/06/16 06:34:18;;;;;;;2.70;2.60;;;19.70;99.90;;;;;;4955015;28;20527;-70
2022/06/16 06:36:44;;;;;;;3.50;3.20;;;20.10;99.90;;;;;;4955447;29;20842;-70
2022/06/16 06:39:12;;;;;;;5.20;3.37;;;20.20;99.90;;;;;;4955506;29;20472;-70
2022/06/16 06:41:39;;;;;;;3.70;3.50;;;19.90;99.90;;;;;;4954721;29;20876;-70
2022/06/16 06:44:06;;;;;;;2.80;2.80;;;20.40;99.90;;;;;;4955178;28;20488;-70
2022/06/16 06:46:33;;;;;;;2.67;2.57;;;21.30;99.90;;;;;;4954680;29;20884;-70
2022/06/16 06:49:02;;;;;;;3.00;2.90;;;21.70;99.90;;;;;;4954691;28;20475;-70
2022/06/16 06:51:30;;;;;;;2.40;2.30;;;22.30;99.90;;;;;;4963962;28;20579;-70
2022/06/16 06:53:57;;;;;;;2.90;2.80;;;22.60;99.90;;;;;;4974406;28;20600;-69
2022/06/16 06:56:24;;;;;;;3.03;2.90;;;23.10;99.90;;;;;;4973792;28;20466;-70
2022/06/16 06:58:52;;;;;;;3.10;3.00;;;23.50;99.90;;;;;;4974531;28;20465;-70
2022/06/16 07:01:18;;;;;;;2.57;2.47;;;23.50;99.90;;;;;;4973589;28;20460;-70
2022/06/16 07:03:45;;;;;;;3.60;3.30;;;23.70;99.90;;;;;;4974289;28;20481;-70
2022/06/16 07:06:13;;;;;;;2.63;2.53;;;23.80;99.90;;;;;;4974376;28;20473;-70
2022/06/16 07:08:40;;;;;;;3.83;2.60;;;23.60;99.90;;;;;;4974342;28;20888;-70
2022/06/16 07:11:07;;;;;;;2.87;2.77;;;23.40;99.90;;;;;;4973503;28;20577;-70
2022/06/16 07:13:34;;;;;;;3.30;3.10;;;23.50;99.90;;;;;;4978911;28;20463;-70
2022/06/16 07:16:01;;;;;;;2.40;2.30;;;23.30;99.90;;;;;;4988108;28;20478;-70
2022/06/16 07:18:28;;;;;;;2.50;2.40;;;23.20;99.90;;;;;;4983466;28;20965;-71
2022/06/16 07:20:55;;;;;;;2.93;2.83;;;23.00;99.90;;;;;;4974586;28;20460;-70
2022/06/16 07:23:23;;;;;;;3.33;3.13;;;22.70;99.90;;;;;;4974160;28;20472;-70
2022/06/16 07:25:51;;;;;;;2.50;2.40;;;22.60;99.90;;;;;;4973619;28;20468;-70
2022/06/16 07:28:18;;;;;;;3.10;2.90;;;22.40;99.90;;;;;;4969051;28;20465;-70
2022/06/16 07:30:45;;;;;;;2.57;2.47;;;22.50;99.90;;;;;;4973157;28;20464;-70
2022/06/16 07:33:12;;;;;;;2.87;2.30;;;22.80;99.90;;;;;;4973775;28;20910;-70
2022/06/16 07:35:41;;;;;;;11.63;3.43;;;23.40;99.90;;;;;;4973584;28;20795;-70
2022/06/16 07:38:07;;;;;;;2.70;2.60;;;23.90;99.90;;;;;;4973823;28;20474;-71
2022/06/16 07:40:36;;;;;;;2.97;2.87;;;24.40;99.90;;;;;;4972852;28;20530;-70
2022/06/16 07:43:02;;;;;;;2.90;2.80;;;24.50;99.90;;;;;;4973641;28;20461;-71
2022/06/16 07:45:30;;;;;;;2.37;2.27;;;24.70;99.90;;;;;;4973176;28;20576;-70
2022/06/16 07:48:00;;;;;;;2.67;2.50;;;24.80;99.90;;;;;;4973638;28;20497;-70
2022/06/16 07:50:28;;;;;;;2.40;2.33;;;25.20;99.90;;;;;;4973161;28;20817;-71
2022/06/16 07:52:54;;;;;;;3.17;2.73;;;25.40;99.90;;;;;;4973205;28;20890;-70
2022/06/16 07:55:21;;;;;;;2.10;2.10;;;25.20;99.90;;;;;;4972463;28;20509;-70
2022/06/16 07:57:50;;;;;;;2.43;2.23;;;25.50;99.90;;;;;;4973673;28;20474;-71
2022/06/16 08:00:20;;;;;;;2.70;2.50;;;26.00;99.90;;;;;;4972702;28;20884;-70
2022/06/16 08:02:47;;;;;;;2.63;2.53;;;25.70;99.90;;;;;;4973246;28;20533;-71
2022/06/16 08:05:14;;;;;;;3.33;2.53;;;25.70;99.90;;;;;;4973017;28;20533;-70
2022/06/16 08:07:42;;;;;;;2.30;2.20;;;25.90;99.90;;;;;;4973320;28;20473;-71
2022/06/16 08:10:12;;;;;;;2.30;2.20;;;25.30;99.90;;;;;;4973001;28;20471;-70
2022/06/16 08:12:39;;;;;;;3.57;3.37;;;25.00;99.90;;;;;;4972969;28;20490;-70
2022/06/16 08:15:07;;;;;;;2.30;2.20;;;24.90;99.90;;;;;;4972590;28;20492;-71
2022/06/16 08:17:37;;;;;;;2.67;2.47;;;23.30;99.90;;;;;;4969647;28;20471;-70
2022/06/16 08:20:05;;;;;;;2.20;2.10;;;23.00;99.90;;;;;;4972653;28;20461;-70
2022/06/16 08:22:32;;;;;;;1.80;1.80;;;23.10;99.90;;;;;;4972618;28;20469;-70
2022/06/16 08:24:59;;;;;;;3.37;2.77;;;23.00;99.90;;;;;;4972648;28;20514;-70
2022/06/16 08:27:32;;;;;;;2.20;2.20;;;22.90;99.90;;;;;;4972542;28;20971;-70
2022/06/16 08:29:59;;;;;;;2.73;2.53;;;23.30;99.90;;;;;;4972271;28;21008;-70
2022/06/16 08:32:27;;;;;;;2.37;2.27;;;23.70;99.90;;;;;;4972504;28;20497;-70
2022/06/16 08:34:54;;;;;;;2.63;2.53;;;23.70;99.90;;;;;;4972299;28;20945;-70
2022/06/16 08:37:22;;;;;;;1.90;1.90;;;23.40;99.90;;;;;;4972822;28;20498;-70
2022/06/16 08:39:48;;;;;;;2.60;2.50;;;23.00;99.90;;;;;;4972575;28;20491;-70
2022/06/16 08:42:23;;;;;;;2.80;2.73;;;23.00;99.90;;;;;;4974254;28;20467;-69
2022/06/16 08:44:59;;;;;;;2.47;2.30;;;22.80;99.90;;;;;;4977590;28;20488;-70
2022/06/16 08:47:36;;;;;;;2.83;2.80;;;22.40;99.90;;;;;;4991560;28;20459;-70
2022/06/16 08:50:21;;;;;;;2.50;2.30;;;22.00;99.90;;;;;;4994887;28;20514;-70
2022/06/16 08:52:56;;;;;;;3.50;2.80;;;22.40;99.90;;;;;;4987844;28;20472;-70
2022/06/16 08:55:31;;;;;;;2.70;2.60;;;23.00;99.90;;;;;;4977754;28;20486;-70
2022/06/16 08:58:02;;;;;;;3.40;2.43;;;23.40;99.90;;;;;;4973013;28;20463;-70
2022/06/16 09:00:33;;;;;;;2.20;2.10;;;23.30;99.90;;;;;;4971718;28;20474;-70
2022/06/16 09:03:07;;;;;;;3.60;3.43;;;22.90;99.90;;;;;;4972435;28;20460;-70
2022/06/16 09:05:47;;;;;;;2.60;2.50;;;22.10;99.90;;;;;;4971920;28;20569;-70
2022/06/16 09:08:25;;;;;;;2.33;2.23;;;22.10;99.90;;;;;;4971850;28;20571;-70
2022/06/16 09:11:00;;;;;;;2.63;2.43;;;22.10;99.90;;;;;;4971180;28;20472;-70
2022/06/16 09:13:50;;;;;;;2.20;2.10;;;21.90;99.90;;;;;;4972147;28;20487;-70
2022/06/16 09:16:29;;;;;;;5.50;2.40;;;22.00;99.90;;;;;;4972614;28;20522;-70
2022/06/16 09:19:25;;;;;;;2.43;2.43;;;22.50;99.90;;;;;;4981914;28;20511;-70
2022/06/16 09:22:05;;;;;;;1.90;1.80;;;22.80;99.90;;;;;;4984174;28;20618;-70
2022/06/16 09:24:52;;;;;;;2.50;2.40;;;22.40;99.90;;;;;;4974149;28;20490;-70
2022/06/16 09:27:24;;;;;;;1.87;1.87;;;21.80;99.90;;;;;;4972126;28;20472;-70
2022/06/16 09:29:56;;;;;;;2.00;1.97;;;21.50;99.90;;;;;;4966369;28;20468;-70
2022/06/16 09:32:30;;;;;;;2.27;2.17;;;21.70;99.90;;;;;;4972032;28;20484;-70
2022/06/16 09:35:04;;;;;;;6.23;2.10;;;22.30;99.90;;;;;;4972287;28;20597;-70
2022/06/16 09:37:35;;;;;;;2.10;2.00;;;22.70;99.90;;;;;;4971518;28;20467;-70
2022/06/16 09:40:07;;;;;;;1.67;1.60;;;22.30;99.90;;;;;;4971504;28;20506;-70
2022/06/16 09:42:40;;;;;;;2.10;2.00;;;21.80;99.90;;;;;;4971681;28;20467;-70
2022/06/16 09:45:15;;;;;;;1.50;1.50;;;21.60;99.90;;;;;;4971307;28;20495;-70
2022/06/16 09:47:47;;;;;;;2.00;1.90;;;21.70;99.90;;;;;;4971686;28;20486;-70
2022/06/16 09:50:24;;;;;;;2.37;2.30;;;21.60;99.90;;;;;;4971221;28;20472;-70
2022/06/16 09:52:55;;;;;;;2.43;1.70;;;21.60;99.90;;;;;;4971938;28;20487;-70
2022/06/16 09:55:26;;;;;;;1.50;1.50;;;21.90;99.90;;;;;;4970730;28;20558;-70
2022/06/16 09:57:59;;;;;;;1.50;1.50;;;22.10;99.90;;;;;;4971715;28;21019;-69
2022/06/16 10:00:27;;;;;;;2.00;1.90;;;22.30;99.90;;;;;;4970451;28;20468;-70
2022/06/16 10:02:57;;;;;;;1.70;1.70;;;22.20;99.90;;;;;;4971493;28;20471;-70
2022/06/16 10:05:34;;;;;;;1.87;1.77;;;22.10;99.90;;;;;;4971594;28;20562;-70
2022/06/16 10:08:05;;;;;;;2.50;2.40;;;22.00;99.90;;;;;;4971917;28;20805;-70
2022/06/16 10:10:38;;;;;;;1.77;1.70;;;22.10;99.90;;;;;;4970844;28;20847;-69
2022/06/16 10:13:20;;;;;;;1.63;1.63;;;22.40;99.90;;;;;;4971268;28;20545;-69
2022/06/16 10:15:52;;;;;;;1.60;1.50;;;22.10;99.90;;;;;;4984573;23;20499;-69
2022/06/16 10:18:19;;;;;;;3.70;1.20;;;21.90;99.90;;;;;;4970161;28;20553;-69
2022/06/16 10:20:47;;;;;;;2.07;1.97;;;21.70;99.60;;;;;;4971056;28;20467;-69
2022/06/16 10:23:17;;;;;;;1.33;1.33;;;21.70;99.20;;;;;;4972611;28;20539;-70
2022/06/16 10:25:48;;;;;;;1.87;1.77;;;21.90;99.40;;;;;;4974799;28;20519;-69
2022/06/16 10:28:23;;;;;;;3.60;1.70;;;22.20;99.50;;;;;;4975225;28;20499;-70
2022/06/16 10:30:50;;;;;;;1.63;1.50;;;22.30;99.30;;;;;;4974366;28;20467;-70
2022/06/16 10:33:21;;;;;;;1.33;1.30;;;22.40;99.10;;;;;;4975082;28;20804;-69
2022/06/16 10:35:53;;;;;;;1.37;1.27;;;22.30;97.00;;;;;;4974470;28;20503;-69
2022/06/16 10:38:32;;;;;;;1.20;1.20;;;22.10;97.20;;;;;;4975538;28;20478;-68
2022/06/16 10:41:01;;;;;;;1.40;1.40;;;22.20;97.50;;;;;;4974272;28;20467;-69
2022/06/16 10:43:29;;;;;;;1.43;1.03;;;22.30;97.70;;;;;;4974889;28;20578;-69
2022/06/16 10:46:00;;;;;;;2.63;1.20;;;22.40;96.60;;;;;;4974088;28;20546;-69
2022/06/16 10:48:33;;;;;;;1.30;1.30;;;22.30;96.60;;;;;;4975046;28;20480;-68
2022/06/16 10:51:09;;;;;;;1.63;1.30;;;22.00;96.90;;;;;;4970737;28;20469;-70
2022/06/16 10:53:40;;;;;;;1.40;1.30;;;22.00;97.60;;;;;;4974234;28;20487;-69
2022/06/16 10:56:11;;;;;;;1.23;1.10;;;21.90;96.50;;;;;;4973760;28;20590;-69
2022/06/16 10:58:46;;;;;;;1.50;1.50;;;21.80;97.70;;;;;;4974143;28;20467;-69
2022/06/16 11:01:17;;;;;;;1.10;1.10;;;21.70;97.40;;;;;;4973538;28;20959;-70
2022/06/16 11:03:47;;;;;;;1.53;1.40;;;21.80;96.90;;;;;;4974097;28;20464;-68
2022/06/16 11:06:17;;;;;;;1.90;1.23;;;21.90;96.20;;;;;;4973943;28;20488;-70
2022/06/16 11:08:46;;;;;;;1.40;1.30;;;22.10;96.30;;;;;;4974143;28;20534;-69
2022/06/16 11:11:16;;;;;;;1.40;1.10;;;22.10;96.90;;;;;;4972972;28;20467;-69
2022/06/16 11:13:48;;;;;;;1.00;1.00;;;22.20;97.10;;;;;;4973916;28;20488;-69
2022/06/16 11:16:26;;;;;;;1.10;1.10;;;22.10;95.80;;;;;;4973268;28;20495;-69
2022/06/16 11:18:56;;;;;;;0.80;0.80;;;22.20;95.30;;;;;;4973957;28;20475;-69
2022/06/16 11:21:28;;;;;;;0.77;0.77;;;22.20;94.30;;;;;;4973856;28;20476;-69
2022/06/16 11:23:58;;;;;;;0.80;0.80;;;22.20;94.00;;;;;;4973471;28;21000;-69
2022/06/16 11:26:28;;;;;;;0.73;0.70;;;22.30;93.50;;;;;;4973520;28;20811;-69
2022/06/16 11:28:58;;;;;;;1.00;0.70;;;22.20;92.90;;;;;;4968827;28;20464;-70
2022/06/16 11:31:35;;;;;;;0.60;0.60;;;22.20;92.20;;;;;;4973079;28;20887;-70
2022/06/16 11:34:09;;;;;;;1.03;0.80;;;22.10;91.50;;;;;;4973232;28;21046;-71
2022/06/16 11:37:11;;;;;;;0.67;0.67;;;22.20;91.60;;;;;;4973363;28;20497;-70
2022/06/16 11:39:50;;;;;;;0.73;0.60;;;22.10;89.80;;;;;;4974043;28;20789;-71
2022/06/16 11:42:27;;;;;;;0.60;0.60;;;22.20;90.50;;;;;;4972729;28;20960;-68
2022/06/16 11:45:04;;;;;;;1.60;0.73;;;22.10;90.10;;;;;;4972997;28;20490;-73
2022/06/16 11:47:45;;;;;;;2.50;0.90;;;22.20;89.50;;;;;;4973654;28;20839;-70
2022/06/16 11:50:18;;;;;;;0.57;0.57;;;22.30;87.60;;;;;;4972801;28;20493;-70
2022/06/16 11:52:53;;;;;;;1.00;1.00;;;22.50;90.00;;;;;;4973101;28;20484;-70
2022/06/16 11:55:31;;;;;;;0.87;0.80;;;22.60;90.00;;;;;;4972446;28;20490;-70
2022/06/16 11:58:12;;;;;;;0.70;0.70;;;22.70;90.60;;;;;;4973064;28;20463;-70
2022/06/16 12:00:45;;;;;;;0.70;0.70;;;22.90;90.60;;;;;;4972708;28;20526;-70
2022/06/16 12:03:37;;;;;;;1.00;1.00;;;23.00;90.70;;;;;;4973057;28;20515;-70
2022/06/16 12:06:34;;;;;;;0.80;0.80;;;23.10;90.70;;;;;;4972930;28;20491;-69
2022/06/16 12:09:17;;;;;;;0.93;0.93;;;23.00;90.40;;;;;;4973072;28;20986;-69
2022/06/16 12:11:51;;;;;;;1.10;1.03;;;22.90;90.50;;;;;;4972646;28;20467;-68
2022/06/16 12:14:24;;;;;;;0.70;0.70;;;22.90;90.20;;;;;;4972766;28;20845;-68
2022/06/16 12:17:03;;;;;;;1.00;0.97;;;22.90;90.30;;;;;;4972533;28;20472;-70
2022/06/16 12:19:38;;;;;;;0.73;0.73;;;23.00;90.40;;;;;;4971008;28;20459;-69
2022/06/16 12:22:11;;;;;;;0.80;0.70;;;23.20;91.00;;;;;;4972479;28;20466;-69
2022/06/16 12:24:48;;;;;;;1.80;1.00;;;23.30;90.50;;;;;;4972216;28;21038;-66
2022/06/16 12:27:19;;;;;;;0.80;0.80;;;23.30;90.30;;;;;;4972463;28;20463;-69
2022/06/16 12:29:51;;;;;;;0.87;0.87;;;23.00;89.70;;;;;;4971811;28;20855;-69
2022/06/16 12:32:33;;;;;;;1.13;1.13;;;23.00;90.30;;;;;;4972416;28;20817;-71
2022/06/16 12:35:08;;;;;;;1.20;1.13;;;23.00;91.00;;;;;;4972406;28;20479;-71
2022/06/16 12:37:38;;;;;;;1.50;1.40;;;23.00;91.30;;;;;;4972668;28;20539;-69
2022/06/16 12:40:10;;;;;;;1.47;1.30;;;23.10;91.40;;;;;;4972201;28;20480;-68
2022/06/16 12:42:43;;;;;;;3.40;1.10;;;23.00;91.00;;;;;;4971940;28;20475;-69
2022/06/16 12:45:15;;;;;;;1.07;1.07;;;23.00;91.00;;;;;;4971206;28;20483;-70
2022/06/16 12:47:47;;;;;;;3.33;1.40;;;23.00;90.90;;;;;;4972212;28;20472;-69
2022/06/16 12:50:19;;;;;;;1.13;1.10;;;23.20;91.10;;;;;;4968740;28;20471;-70
2022/06/16 12:52:51;;;;;;;1.20;1.20;;;23.30;90.80;;;;;;4964535;28;20956;-69
2022/06/16 12:55:23;;;;;;;5.03;1.80;;;23.40;91.00;;;;;;4971173;28;20484;-69
2022/06/16 12:57:57;;;;;;;1.30;1.30;;;23.40;91.10;;;;;;4972033;28;20464;-70
2022/06/16 13:00:29;;;;;;;1.63;1.43;;;23.40;91.60;;;;;;4971458;28;20467;-69
2022/06/16 13:03:00;;;;;;;1.30;1.30;;;23.40;91.70;;;;;;4972000;28;20476;-69
2022/06/16 13:05:29;;;;;;;1.07;1.07;;;23.50;91.00;;;;;;4971646;28;20566;-68
2022/06/16 13:08:00;;;;;;;1.47;1.37;;;23.60;91.00;;;;;;4971731;28;20506;-69
2022/06/16 13:10:33;;;;;;;2.13;1.63;;;23.70;90.90;;;;;;4971160;28;20468;-70
2022/06/16 13:13:00;;;;;;;1.80;1.30;;;23.70;90.50;;;;;;4972313;28;20999;-70
2022/06/16 13:15:31;;;;;;;1.50;1.40;;;23.70;90.90;;;;;;4971415;28;21054;-68
2022/06/16 13:18:05;;;;;;;1.60;1.50;;;23.80;90.40;;;;;;4972212;28;20801;-69
2022/06/16 13:20:34;;;;;;;1.10;1.00;;;23.90;89.70;;;;;;4971654;28;20467;-69
2022/06/16 13:23:12;;;;;;;1.63;1.53;;;24.10;90.30;;;;;;4972168;28;20459;-69
2022/06/16 13:25:48;;;;;;;1.47;1.47;;;24.10;90.20;;;;;;4971183;28;20490;-69
2022/06/16 13:28:26;;;;;;;0.90;0.90;;;24.20;90.10;;;;;;4971470;28;20551;-69
2022/06/16 13:31:22;;;;;;;1.00;0.93;;;24.00;90.10;;;;;;4970845;28;20947;-69
2022/06/16 13:34:09;;;;;;;1.10;1.10;;;23.80;88.70;;;;;;4972151;28;20491;-68
2022/06/16 13:36:49;;;;;;;1.17;1.17;;;23.70;89.20;;;;;;4972049;28;20474;-71
2022/06/16 13:39:48;;;;;;;1.33;1.33;;;23.70;90.00;;;;;;4970510;28;20478;-67
2022/06/16 13:42:20;;;;;;;1.40;1.40;;;23.90;89.60;;;;;;4967416;28;20460;-69
2022/06/16 13:45:17;;;;;;;0.90;0.90;;;24.00;89.60;;;;;;4971130;28;20479;-70
2022/06/16 13:47:45;;;;;;;1.30;1.30;;;24.10;90.40;;;;;;4969853;28;20471;-70
2022/06/16 13:50:20;;;;;;;1.37;1.37;;;24.20;89.30;;;;;;4971484;28;20586;-70
2022/06/16 13:52:59;;;;;;;1.47;1.27;;;24.30;88.20;;;;;;4971697;28;20770;-70
2022/06/16 13:55:30;;;;;;;2.43;1.27;;;24.30;88.30;;;;;;4970887;28;20514;-70
2022/06/16 13:58:22;;;;;;;4.30;1.40;;;24.40;87.20;;;;;;4973916;28;20522;-70
2022/06/16 14:01:05;;;;;;;1.60;1.40;;;24.40;89.30;;;;;;4974752;28;20467;-70
2022/06/16 14:03:34;;;;;;;1.40;1.30;;;24.40;86.50;;;;;;4975432;28;20571;-68
2022/06/16 14:06:06;;;;;;;1.40;1.30;;;24.30;85.30;;;;;;4975682;28;20542;-70
2022/06/16 14:08:34;;;;;;;1.20;1.20;;;24.40;84.80;;;;;;4975248;28;20551;-71
2022/06/16 14:11:20;;;;;;;2.43;1.47;;;24.50;85.80;;;;;;4974684;28;20467;-72
2022/06/16 14:14:09;;;;;;;1.60;1.50;;;24.40;85.70;;;;;;4975425;28;21015;-68
2022/06/16 14:16:37;;;;;;;2.43;1.23;;;24.40;86.50;;;;;;4974595;28;20905;-70
2022/06/16 14:19:12;;;;;;;1.63;1.53;;;24.30;87.20;;;;;;4972119;28;20460;-70
2022/06/16 14:21:56;;;;;;;1.20;1.20;;;24.30;86.80;;;;;;4975192;28;20459;-69
2022/06/16 14:24:37;;;;;;;1.63;1.57;;;24.10;87.20;;;;;;4974645;28;20999;-68
2022/06/16 14:27:10;;;;;;;1.30;1.30;;;23.80;87.50;;;;;;4974570;28;20570;-68
2022/06/16 14:29:39;;;;;;;1.70;1.20;;;23.60;88.40;;;;;;4974814;28;20463;-69
2022/06/16 14:32:10;;;;;;;1.17;1.03;;;23.50;88.20;;;;;;4974636;28;20482;-70
2022/06/16 14:34:42;;;;;;;1.70;1.60;;;23.30;88.50;;;;;;4974483;28;20492;-68
2022/06/16 14:37:17;;;;;;;1.30;1.27;;;23.30;90.00;;;;;;4974904;28;20507;-69
2022/06/16 14:39:49;;;;;;;1.47;1.37;;;23.30;90.10;;;;;;4974352;28;20463;-70
2022/06/16 14:42:19;;;;;;;1.17;1.17;;;23.50;89.70;;;;;;4974537;28;20474;-71
2022/06/16 14:44:53;;;;;;;1.80;1.70;;;23.70;90.20;;;;;;4974211;28;20499;-69
2022/06/16 14:47:28;;;;;;;2.60;1.30;;;23.70;89.50;;;;;;4974726;28;20467;-69
2022/06/16 14:49:58;;;;;;;1.50;1.50;;;23.50;88.80;;;;;;4974248;28;20455;-71
2022/06/16 14:52:34;;;;;;;2.10;1.40;;;23.70;89.10;;;;;;4974902;28;20475;-70
2022/06/16 14:55:08;;;;;;;1.50;1.50;;;23.90;88.60;;;;;;4975218;28;20777;-71
2022/06/16 14:57:39;;;;;;;1.30;1.30;;;24.00;88.60;;;;;;4975102;28;20467;-71
2022/06/16 15:00:16;;;;;;;1.57;1.57;;;24.20;89.30;;;;;;4975104;28;20811;-69
2022/06/16 15:02:43;;;;;;;1.30;1.27;;;24.30;89.20;;;;;;4974735;28;20476;-70
2022/06/16 15:05:17;;;;;;;1.93;1.40;;;24.10;89.40;;;;;;4975482;28;20533;-68
2022/06/16 15:07:46;;;;;;;1.60;1.50;;;24.10;88.60;;;;;;4968479;28;20467;-69
2022/06/16 15:10:15;;;;;;;2.43;1.80;;;24.10;88.10;;;;;;4974429;28;20563;-69
2022/06/16 15:12:44;;;;;;;3.50;1.43;;;24.40;87.40;;;;;;4975412;28;20904;-70
2022/06/16 15:15:17;;;;;;;1.50;1.50;;;24.60;86.80;;;;;;4974016;28;20495;-69
2022/06/16 15:20:30;;;;;;;1.10;1.10;;;24.50;85.70;;;;;;4973599;28;20455;-70
2022/06/16 15:22:58;;;;;;;1.83;1.37;;;24.60;85.90;;;;;;4973819;28;20953;-70
2022/06/16 15:25:34;;;;;;;1.53;1.30;;;24.60;86.90;;;;;;4974018;28;20491;-71
2022/06/16 15:28:12;;;;;;;3.40;1.40;;;24.50;87.20;;;;;;4974986;28;20471;-71
2022/06/16 15:30:41;;;;;;;2.30;1.37;;;24.70;88.40;;;;;;4973336;28;20467;-70
2022/06/16 15:36:13;;;;;;;1.57;1.57;;;24.70;90.10;;;;;;4973239;28;20471;-68
2022/06/16 15:38:42;;;;;;;1.20;1.20;;;24.60;89.50;;;;;;4973512;28;20474;-68
2022/06/16 15:41:26;;;;;;;1.30;1.30;;;24.50;90.30;;;;;;4970864;28;20885;-68
2022/06/16 15:43:58;;;;;;;1.60;1.43;;;24.60;90.60;;;;;;4973624;28;20866;-69
2022/06/16 15:46:28;;;;;;;1.50;1.50;;;24.40;89.30;;;;;;4972935;28;20466;-68
2022/06/16 15:48:58;;;;;;;1.60;1.50;;;24.30;89.90;;;;;;4973361;28;20880;-69
2022/06/16 15:51:26;;;;;;;1.87;1.20;;;24.20;90.20;;;;;;4972939;28;20496;-68
2022/06/16 15:53:53;;;;;;;1.70;1.60;;;24.10;90.70;;;;;;4972671;28;20546;-69
2022/06/16 15:56:26;;;;;;;1.53;1.53;;;24.10;90.90;;;;;;4972429;28;20988;-68
2022/06/16 15:59:02;;;;;;;1.77;1.67;;;24.10;90.70;;;;;;4973088;28;20471;-68
2022/06/16 16:01:32;;;;;;;1.50;1.50;;;23.90;90.80;;;;;;4972635;28;20717;-68
2022/06/16 16:04:02;;;;;;;2.23;1.70;;;23.60;91.60;;;;;;4973016;28;20471;-68
2022/06/16 16:06:32;;;;;;;1.50;1.40;;;23.40;92.30;;;;;;4972766;28;20499;-68
2022/06/16 16:08:59;;;;;;;1.10;1.10;;;23.40;92.30;;;;;;4972872;28;20514;-69
2022/06/16 16:11:28;;;;;;;1.30;1.30;;;23.50;92.00;;;;;;4971977;28;20475;-68
2022/06/16 16:13:58;;;;;;;1.20;1.20;;;23.50;91.90;;;;;;4972415;28;21003;-67
2022/06/16 16:16:24;;;;;;;1.40;1.30;;;23.50;91.00;;;;;;4972178;28;20483;-66
2022/06/16 16:19:11;;;;;;;1.70;1.60;;;23.70;91.00;;;;;;4969074;28;20472;-67
2022/06/16 16:21:42;;;;;;;1.03;1.03;;;23.70;91.60;;;;;;4970811;28;20920;-68
2022/06/16 16:24:11;;;;;;;1.40;1.40;;;23.80;91.80;;;;;;4972622;28;20468;-68
2022/06/16 16:26:38;;;;;;;1.50;1.43;;;23.80;91.00;;;;;;4972585;28;20506;-67
2022/06/16 16:29:08;;;;;;;1.20;1.20;;;23.70;91.70;;;;;;4972458;28;20953;-67
2022/06/16 16:31:49;;;;;;;1.17;1.17;;;23.60;91.80;;;;;;4971967;28;20464;-67
2022/06/16 16:34:18;;;;;;;1.40;1.40;;;23.40;92.20;;;;;;4972019;28;20526;-68
2022/06/16 16:36:57;;;;;;;1.43;1.33;;;23.30;92.80;;;;;;4972257;28;21030;-68
2022/06/16 16:39:26;;;;;;;1.80;1.80;;;23.30;92.90;;;;;;4972496;28;20533;-67
2022/06/16 16:45:05;;;;;;;1.50;1.50;;;23.50;92.40;;;;;;4972077;28;21161;-67
2022/06/16 16:47:32;;;;;;;1.63;1.47;;;23.40;92.20;;;;;;4972211;28;20547;-70
2022/06/16 16:50:03;;;;;;;3.13;1.50;;;23.40;92.00;;;;;;4971955;28;20468;-67
2022/06/16 16:52:35;;;;;;;2.03;1.43;;;23.40;91.90;;;;;;4972146;28;20467;-67
2022/06/16 16:55:09;;;;;;;1.90;1.17;;;23.40;92.10;;;;;;4971513;28;21059;-68
2022/06/16 16:57:37;;;;;;;1.70;1.60;;;23.40;92.40;;;;;;4971981;28;20463;-67
2022/06/16 17:00:07;;;;;;;1.80;1.80;;;23.40;92.60;;;;;;4971607;28;20856;-67
2022/06/16 17:02:34;;;;;;;1.30;1.27;;;23.30;92.50;;;;;;4972119;28;20467;-68
2022/06/16 17:05:02;;;;;;;1.67;1.57;;;23.10;92.70;;;;;;4972136;28;20480;-68
2022/06/16 17:07:31;;;;;;;2.13;2.03;;;22.90;92.60;;;;;;4971691;28;20468;-70
2022/06/16 17:09:58;;;;;;;1.67;1.57;;;22.90;93.00;;;;;;4971908;28;20550;-68
2022/06/16 17:12:25;;;;;;;1.60;1.60;;;22.70;93.20;;;;;;4971195;28;20482;-69
2022/06/16 17:14:52;;;;;;;1.40;1.40;;;22.60;93.30;;;;;;4971162;28;20582;-68
2022/06/16 17:17:20;;;;;;;1.60;1.53;;;22.50;93.50;;;;;;4972533;28;20541;-68
2022/06/16 17:19:50;;;;;;;3.00;1.47;;;22.50;93.60;;;;;;4971874;28;20896;-68
2022/06/16 17:22:19;;;;;;;1.30;1.20;;;22.40;94.10;;;;;;4971799;28;20460;-69
2022/06/16 17:24:46;;;;;;;2.07;1.70;;;22.30;94.30;;;;;;4972054;28;20490;-70
2022/06/16 17:27:13;;;;;;;1.67;1.60;;;22.30;94.10;;;;;;4972177;28;20463;-70
2022/06/16 17:29:40;;;;;;;1.67;1.57;;;22.20;94.30;;;;;;4971947;28;20468;-68